SASA/SLA METAR and TAF weather

Enter ICAO airport designator
Station Type Date Time Source
SASA METAR 2018/12/13 09:45 UTC NOAA

SASA 130945Z 27003KT 5000 BR BKN200 17/16 Q1012


Station Type Date Time Source
SASA Decoded METAR 2018/12/13 09:45 UTC NOAA

Salta Aerodrome, Argentina (SASA) 24-51S 065-29W 1221M
Dec 13, 2018 - 04:45 AM EST / 2018.12.13 0945 UTC
Wind: from the W (270 degrees) at 3 MPH (3 KT):0
Visibility: 3 mile(s):0
Sky conditions: mostly cloudy
Weather: mist
Temperature: 62 F (17 C)
Dew Point: 60 F (16 C)
Relative Humidity: 93%
Pressure (altimeter): 29.88 in. Hg (1012 hPa)
ob: SASA 130945Z 27003KT 5000 BR BKN200 17/16 Q1012
cycle: 10

Station Type Date Time Source
SASA TAF 2018/12/13 06:15 UTC NOAA

TAF SASA 130500Z 1306/1406 05010KT 4000 TS/RASH BKN010 BKN020 FEW040CB TX35/1318Z TN20/1310Z
BECMG 1310/1313 20010KT 9999 BKN025


Example: see airport list